Time;durP1;ratioP1;P1;durP2;ratioP2;P2;SDS_P1;SDS_P2;PMS_P1;PMS_P2;Temp;Humidity;BMP_temperature;BMP_pressure;BME280_temperature;BME280_humidity;BME280_pressure;Samples;Min_cycle;Max_cycle;Signal;HPM_P1;HPM_P2
2021/12/23 00:00:55;;;;;;;;;59.00;45.25;;;;;1.97;65.99;101104.59;5040074;28;47679;-60
2021/12/23 00:03:22;;;;;;;;;48.25;40.25;;;;;1.97;65.73;101102.84;5055311;28;45508;-59
2021/12/23 00:05:47;;;;;;;;;53.75;41.00;;;;;1.93;66.52;101092.38;5055684;28;45430;-59
2021/12/23 00:08:13;;;;;;;;;53.75;43.00;;;;;1.95;66.24;101088.88;5050375;28;45350;-58
2021/12/23 00:10:40;;;;;;;;;52.25;41.75;;;;;1.94;66.45;101091.50;5075584;28;45716;-57
2021/12/23 00:13:05;;;;;;;;;55.00;40.00;;;;;1.96;66.64;101092.38;5076111;28;45461;-58
2021/12/23 00:18:16;;;;;;;;;55.25;47.50;;;;;1.92;66.20;101072.28;5076111;28;45310;-57
2021/12/23 00:25:46;;;;;;;;;64.00;45.00;;;;;1.86;66.49;101054.03;5074162;28;46404;-62
2021/12/23 00:28:11;;;;;;;;;50.25;42.75;;;;;1.88;66.99;101060.97;5075388;28;45537;-58
2021/12/23 00:30:37;;;;;;;;;48.25;43.75;;;;;1.86;67.10;101064.50;5075246;28;46441;-58
2021/12/23 00:33:02;;;;;;;;;54.00;44.50;;;;;1.85;66.44;101071.50;5075206;28;45394;-59
2021/12/23 00:35:28;;;;;;;;;52.75;46.75;;;;;1.73;67.34;101051.56;5072736;28;45382;-59
2021/12/23 00:38:00;;;;;;;;;53.50;45.00;;;;;1.76;66.96;101054.13;5075424;28;45421;-59
2021/12/23 00:40:25;;;;;;;;;47.75;42.75;;;;;1.82;66.96;101047.06;5056989;28;47131;-60
2021/12/23 00:42:51;;;;;;;;;55.25;41.50;;;;;1.87;67.63;101054.00;5057015;28;45410;-62
2021/12/23 00:45:16;;;;;;;;;52.75;42.00;;;;;1.80;66.92;101040.97;5075376;28;45341;-58
2021/12/23 00:47:42;;;;;;;;;63.50;43.75;;;;;1.80;67.42;101051.47;5075665;28;45569;-58
2021/12/23 00:50:08;;;;;;;;;50.00;40.50;;;;;1.78;67.24;101049.72;5075448;28;45279;-58
2021/12/23 00:52:36;;;;;;;;;47.75;44.50;;;;;1.77;67.83;101050.63;5074890;28;45527;-60
2021/12/23 00:55:08;;;;;;;;;65.25;48.00;;;;;1.77;66.80;101037.50;5075371;28;45425;-60
2021/12/23 00:57:38;;;;;;;;;48.50;45.00;;;;;1.76;67.11;101035.78;5073508;28;45628;-56
2021/12/23 01:00:15;;;;;;;;;54.50;42.25;;;;;1.74;67.16;101028.81;5075026;28;46221;-59
2021/12/23 01:02:44;;;;;;;;;56.25;44.00;;;;;1.74;67.66;101034.94;5075454;28;45297;-60
2021/12/23 01:05:10;;;;;;;;;37.25;35.50;;;;;1.76;67.55;101027.03;5072938;28;45366;-59
2021/12/23 01:07:35;;;;;;;;;52.00;42.75;;;;;1.70;67.73;101025.38;5075257;28;45298;-59
2021/12/23 01:10:01;;;;;;;;;54.25;47.50;;;;;1.77;67.65;101026.16;5055650;28;45397;-59
2021/12/23 01:12:32;;;;;;;;;61.75;47.50;;;;;1.73;68.04;101033.19;5074846;28;45426;-61
2021/12/23 01:15:11;;;;;;;;;63.00;47.50;;;;;1.67;68.17;101011.41;5074953;28;45582;-59
2021/12/23 01:17:54;;;;;;;;;66.00;48.75;;;;;1.71;68.34;101026.25;5073452;28;45211;-60
2021/12/23 01:20:30;;;;;;;;;67.25;49.50;;;;;1.74;67.73;101032.31;5073904;28;45374;-60
2021/12/23 01:23:01;;;;;;;;;54.25;43.00;;;;;1.77;67.38;101031.41;5054518;28;45558;-61
2021/12/23 01:25:28;;;;;;;;;61.25;47.50;;;;;1.83;67.32;101022.59;5056426;28;45359;-59
2021/12/23 01:27:54;;;;;;;;;50.50;44.50;;;;;1.82;67.88;101023.47;5075056;27;45302;-59
2021/12/23 01:30:21;;;;;;;;;55.00;45.50;;;;;1.81;67.70;101012.09;5074610;28;46589;-59
2021/12/23 01:32:49;;;;;;;;;64.75;48.00;;;;;1.79;67.65;101008.63;5074948;28;45323;-57
2021/12/23 01:35:18;;;;;;;;;44.75;35.75;;;;;1.80;67.53;101010.38;5055650;28;45379;-59
2021/12/23 01:37:44;;;;;;;;;69.50;47.75;;;;;1.82;68.11;101011.22;5075191;28;45512;-60
2021/12/23 01:40:12;;;;;;;;;63.00;45.00;;;;;1.82;67.61;101002.47;5075054;28;46653;-61
2021/12/23 01:42:38;;;;;;;;;43.50;37.25;;;;;1.76;67.70;101004.31;5075769;28;45482;-60
2021/12/23 01:45:10;;;;;;;;;40.25;35.50;;;;;1.84;67.85;101013.84;5078151;28;45392;-59
2021/12/23 01:47:35;;;;;;;;;50.75;40.75;;;;;1.84;67.49;101004.22;5078269;28;45418;-61
2021/12/23 01:50:01;;;;;;;;;48.75;40.00;;;;;1.86;68.16;101002.44;5059660;28;45391;-60
2021/12/23 01:52:26;;;;;;;;;48.50;40.50;;;;;1.84;67.98;101001.59;5078008;28;45272;-62
2021/12/23 01:54:51;;;;;;;;;59.50;42.50;;;;;1.86;67.72;100991.09;5078161;28;45319;-59
2021/12/23 01:57:17;;;;;;;;;52.00;39.50;;;;;1.88;68.20;100991.91;5078208;28;45650;-60
2021/12/23 01:59:43;;;;;;;;;58.75;37.75;;;;;1.88;68.51;100986.69;5077865;28;45349;-60
2021/12/23 02:02:09;;;;;;;;;61.00;46.25;;;;;1.88;67.89;100978.81;5074921;28;45729;-59
2021/12/23 02:04:34;;;;;;;;;54.25;42.25;;;;;1.97;67.57;100986.56;5077681;28;45464;-59
2021/12/23 02:07:00;;;;;;;;;45.00;39.00;;;;;1.93;67.60;100990.94;5058500;28;45441;-59
2021/12/23 02:09:25;;;;;;;;;53.50;44.00;;;;;1.94;67.61;100981.31;5077288;28;46033;-60
2021/12/23 02:11:51;;;;;;;;;45.75;38.75;;;;;1.96;67.81;100980.44;5077687;28;45481;-60
2021/12/23 02:14:18;;;;;;;;;63.50;45.25;;;;;1.89;67.92;100963.03;5077938;28;45755;-59
2021/12/23 02:16:43;;;;;;;;;53.50;38.25;;;;;2.06;68.13;100981.16;5060172;28;45584;-59
2021/12/23 02:19:20;;;;;;;;;59.75;47.25;;;;;2.09;67.23;100981.13;5074469;28;45551;-65
2021/12/23 02:21:46;;;;;;;;;50.75;45.25;;;;;1.97;67.22;100963.81;5077324;28;45316;-60
2021/12/23 02:24:12;;;;;;;;;58.75;48.50;;;;;2.06;67.46;100975.91;5077855;28;45196;-59
2021/12/23 02:26:38;;;;;;;;;48.00;37.50;;;;;2.10;67.40;100982.84;5058061;28;45568;-59
2021/12/23 02:29:04;;;;;;;;;55.50;45.00;;;;;2.13;67.20;100982.81;5077096;28;47509;-59
2021/12/23 02:31:30;;;;;;;;;56.75;45.75;;;;;2.13;67.62;100977.56;5077160;28;45576;-58
2021/12/23 02:33:55;;;;;;;;;53.00;46.50;;;;;2.14;67.20;100968.78;5077382;28;45628;-59
2021/12/23 02:36:21;;;;;;;;;47.75;42.25;;;;;2.09;67.37;100964.53;5077288;28;45636;-56
2021/12/23 02:38:46;;;;;;;;;51.25;45.25;;;;;2.08;67.89;100955.75;5076835;28;45377;-58
2021/12/23 02:41:12;;;;;;;;;65.00;44.00;;;;;2.13;67.48;100960.94;5058848;28;45470;-59
2021/12/23 02:43:37;;;;;;;;;65.00;48.75;;;;;2.18;67.55;100959.97;5077385;28;45447;-59
2021/12/23 02:46:03;;;;;;;;;57.75;46.25;;;;;2.17;67.26;100958.25;5077610;28;45386;-58
2021/12/23 02:48:34;;;;;;;;;51.50;41.00;;;;;2.15;67.46;100953.91;5077347;28;45477;-58
2021/12/23 02:51:03;;;;;;;;;53.00;40.50;;;;;2.16;67.32;100953.88;5076933;28;45418;-59
2021/12/23 02:53:29;;;;;;;;;43.50;41.50;;;;;2.16;66.99;100943.38;5077177;28;45304;-56
2021/12/23 02:55:56;;;;;;;;;60.50;48.50;;;;;2.16;67.49;100939.91;5058961;28;45596;-59
2021/12/23 02:58:22;;;;;;;;;59.75;43.25;;;;;2.19;67.56;100947.72;5076781;28;45636;-60
2021/12/23 03:00:51;;;;;;;;;60.75;43.75;;;;;2.19;67.23;100956.44;5077098;28;45175;-59
2021/12/23 03:03:17;;;;;;;;;47.75;43.00;;;;;2.21;66.97;100949.41;5067440;28;45343;-58
2021/12/23 03:05:50;;;;;;;;;56.75;45.00;;;;;2.17;66.98;100942.50;5076892;28;45651;-59
2021/12/23 03:08:16;;;;;;;;;61.25;48.25;;;;;2.15;67.19;100935.56;5056719;28;45442;-58
2021/12/23 03:10:41;;;;;;;;;49.75;43.75;;;;;2.19;67.39;100940.72;5076725;28;45433;-58
2021/12/23 03:13:07;;;;;;;;;58.25;47.00;;;;;2.21;67.54;100938.94;5077558;28;45538;-58
2021/12/23 03:15:32;;;;;;;;;56.00;46.00;;;;;2.17;67.69;100937.25;5077601;28;45374;-58
2021/12/23 03:17:58;;;;;;;;;58.25;34.50;;;;;2.18;67.16;100938.13;5076599;28;45378;-59
2021/12/23 03:20:23;;;;;;;;;43.75;43.25;;;;;2.19;67.27;100922.34;5058125;28;45451;-59
2021/12/23 03:22:48;;;;;;;;;50.00;43.50;;;;;2.20;67.22;100916.19;5076623;28;45353;-59
2021/12/23 03:25:14;;;;;;;;;44.00;44.00;;;;;2.21;67.45;100928.44;5076636;28;45671;-59
2021/12/23 03:27:39;;;;;;;;;50.75;44.25;;;;;2.24;67.48;100924.91;5076147;28;45339;-59
2021/12/23 03:30:06;;;;;;;;;52.25;45.25;;;;;2.23;67.40;100910.94;5076239;28;45321;-57
2021/12/23 03:32:32;;;;;;;;;58.25;48.50;;;;;2.21;67.11;100917.94;5076321;28;45362;-57
2021/12/23 03:34:57;;;;;;;;;54.00;46.50;;;;;2.24;67.26;100917.91;5058131;28;45557;-57
2021/12/23 03:37:23;;;;;;;;;54.50;37.75;;;;;2.19;67.33;100909.22;5075752;28;45879;-57
2021/12/23 03:39:51;;;;;;;;;55.75;47.75;;;;;2.24;67.06;100904.78;5058137;28;45347;-59
2021/12/23 03:42:17;;;;;;;;;52.75;38.00;;;;;2.26;67.18;100904.75;5076449;28;45898;-58
2021/12/23 03:44:43;;;;;;;;;57.75;46.50;;;;;2.22;66.98;100887.34;5057648;28;45581;-60
2021/12/23 03:47:08;;;;;;;;;58.00;47.75;;;;;2.24;67.56;100891.66;5076181;28;45356;-59
2021/12/23 03:49:33;;;;;;;;;64.50;45.25;;;;;2.28;67.19;100893.34;5076425;28;45322;-61
2021/12/23 03:51:59;;;;;;;;;57.75;47.50;;;;;2.29;66.99;100895.06;5076467;28;45419;-59
2021/12/23 03:54:25;;;;;;;;;59.25;49.25;;;;;2.30;67.50;100888.91;5076308;28;46728;-59
2021/12/23 03:56:50;;;;;;;;;59.25;47.00;;;;;2.23;67.78;100889.06;5073271;28;45422;-58
2021/12/23 03:59:16;;;;;;;;;54.50;47.75;;;;;2.23;67.44;100889.06;5075930;28;45524;-58
2021/12/23 04:01:42;;;;;;;;;61.75;48.00;;;;;2.21;67.69;100883.81;5056665;28;45505;-58
2021/12/23 04:04:08;;;;;;;;;65.00;48.50;;;;;2.23;67.80;100879.44;5076159;28;45466;-59
2021/12/23 04:06:33;;;;;;;;;56.25;45.00;;;;;2.31;67.67;100885.41;5074382;28;45468;-58
2021/12/23 04:08:59;;;;;;;;;64.00;45.75;;;;;2.34;67.29;100872.25;5075625;28;45424;-58
2021/12/23 04:11:25;;;;;;;;;50.50;42.00;;;;;2.34;66.90;100867.00;5075691;28;45446;-59
2021/12/23 04:13:53;;;;;;;;;49.00;45.00;;;;;2.33;66.96;100859.13;5073545;28;45322;-57
2021/12/23 04:16:20;;;;;;;;;55.00;44.00;;;;;2.34;67.15;100871.34;5075822;28;45630;-59
2021/12/23 04:18:47;;;;;;;;;49.50;45.00;;;;;2.33;67.83;100869.63;5075397;28;45327;-57
2021/12/23 04:21:14;;;;;;;;;53.00;44.75;;;;;2.36;67.71;100854.72;5075516;28;45439;-58
2021/12/23 04:23:39;;;;;;;;;62.75;47.25;;;;;2.34;67.46;100851.25;5075770;28;45172;-57
2021/12/23 04:26:07;;;;;;;;;49.00;45.00;;;;;2.41;67.44;100849.38;5057300;28;46425;-57
2021/12/23 04:28:35;;;;;;;;;59.25;48.00;;;;;2.45;67.08;100850.16;5075587;28;45372;-58
2021/12/23 04:31:00;;;;;;;;;58.00;46.50;;;;;2.40;66.77;100833.66;5056022;28;45547;-59
2021/12/23 04:33:26;;;;;;;;;60.00;47.25;;;;;2.44;67.18;100846.66;5075697;28;45425;-59
2021/12/23 04:35:51;;;;;;;;;48.50;47.00;;;;;2.44;67.32;100846.66;5075692;28;46050;-57
2021/12/23 04:38:17;;;;;;;;;59.00;47.75;;;;;2.44;67.66;100836.16;5075302;28;45429;-58
2021/12/23 04:40:42;;;;;;;;;47.75;44.75;;;;;2.47;67.10;100843.13;5075553;28;45422;-60
2021/12/23 04:43:09;;;;;;;;;58.00;47.00;;;;;2.49;67.07;100841.34;5075485;28;45434;-62
2021/12/23 04:45:34;;;;;;;;;57.50;48.50;;;;;2.51;67.54;100847.44;5048838;28;45562;-58
2021/12/23 04:48:00;;;;;;;;;53.00;45.00;;;;;2.52;67.09;100833.41;5074936;28;45523;-58
2021/12/23 04:50:26;;;;;;;;;61.00;46.25;;;;;2.52;67.24;100833.41;5075250;28;45353;-58
2021/12/23 04:52:54;;;;;;;;;65.00;48.75;;;;;2.55;66.96;100835.97;5075867;28;45445;-58
2021/12/23 04:55:19;;;;;;;;;58.75;45.25;;;;;2.54;67.30;100836.88;5074962;28;45402;-58
2021/12/23 04:57:45;;;;;;;;;67.25;49.75;;;;;2.53;67.25;100829.88;5075155;28;45866;-59
2021/12/23 05:00:19;;;;;;;;;52.75;46.00;;;;;2.52;67.34;100842.16;5072672;28;45401;-56
2021/12/23 05:02:45;;;;;;;;;54.00;46.00;;;;;2.55;67.00;100841.22;5075469;28;46470;-59
2021/12/23 05:05:11;;;;;;;;;52.00;44.00;;;;;2.56;67.19;100829.81;5072823;28;45504;-60
2021/12/23 05:07:37;;;;;;;;;55.00;40.75;;;;;2.58;67.37;100833.28;5075299;28;45464;-58
2021/12/23 05:10:04;;;;;;;;;53.00;46.50;;;;;2.56;67.04;100833.31;5075456;28;45538;-56
2021/12/23 05:12:29;;;;;;;;;41.25;32.75;;;;;2.58;66.93;100822.78;5075293;28;45443;-57
2021/12/23 05:14:55;;;;;;;;;61.50;45.25;;;;;2.63;66.98;100827.06;5074957;28;45810;-58
2021/12/23 05:17:20;;;;;;;;;63.75;49.50;;;;;2.62;67.38;100829.72;5057195;28;45503;-57
2021/12/23 05:19:46;;;;;;;;;50.50;44.00;;;;;2.59;67.19;100811.38;5078623;27;45472;-59
2021/12/23 05:22:11;;;;;;;;;59.00;44.75;;;;;2.62;66.93;100803.47;5060313;28;45442;-57
2021/12/23 05:24:36;;;;;;;;;59.50;45.50;;;;;2.65;66.72;100795.53;5078260;28;46213;-60
2021/12/23 05:27:02;;;;;;;;;48.75;46.25;;;;;2.64;66.70;100791.16;5078143;28;45310;-59
2021/12/23 05:29:28;;;;;;;;;49.25;44.00;;;;;2.71;67.11;100797.13;5078218;28;45327;-58
2021/12/23 05:31:53;;;;;;;;;58.00;46.75;;;;;2.70;67.19;100791.03;5078759;28;45626;-58
2021/12/23 05:34:19;;;;;;;;;57.50;45.50;;;;;2.70;66.91;100785.78;5078139;28;45335;-58
2021/12/23 05:36:45;;;;;;;;;63.25;51.75;;;;;2.72;66.87;100786.59;5078212;27;45418;-57
2021/12/23 05:39:10;;;;;;;;;61.00;46.50;;;;;2.71;66.94;100782.25;5078123;28;45262;-60
2021/12/23 05:41:35;;;;;;;;;57.25;48.00;;;;;2.71;66.64;100774.38;5078256;28;45484;-57
2021/12/23 05:44:02;;;;;;;;;61.50;45.50;;;;;2.79;66.81;100779.47;5077949;28;46013;-57
2021/12/23 05:46:28;;;;;;;;;64.75;49.50;;;;;2.81;67.05;100783.78;5059774;28;45365;-59
2021/12/23 05:48:53;;;;;;;;;53.00;45.00;;;;;2.80;66.49;100782.06;5078125;28;45358;-58
2021/12/23 05:51:19;;;;;;;;;55.00;48.50;;;;;2.82;66.98;100784.66;5059999;28;45253;-59
2021/12/23 05:53:44;;;;;;;;;54.00;45.00;;;;;2.82;67.11;100776.78;5077553;28;45353;-58
2021/12/23 05:56:10;;;;;;;;;50.00;44.25;;;;;2.88;66.95;100774.91;5077600;28;45296;-57
2021/12/23 05:58:35;;;;;;;;;61.25;47.75;;;;;2.90;66.79;100783.59;5077759;28;45358;-57
2021/12/23 06:01:01;;;;;;;;;49.25;46.50;;;;;2.94;66.84;100787.88;5058401;28;45649;-58
2021/12/23 06:03:27;;;;;;;;;49.75;41.25;;;;;2.92;66.48;100775.69;5077938;28;45398;-59
2021/12/23 06:05:53;;;;;;;;;57.75;49.75;;;;;2.89;66.94;100771.38;5077872;28;45437;-58
2021/12/23 06:08:18;;;;;;;;;66.75;47.25;;;;;2.92;66.91;100781.81;5078135;28;45476;-59
2021/12/23 06:10:44;;;;;;;;;61.25;48.00;;;;;2.92;66.94;100780.94;5077984;28;45362;-57
2021/12/23 06:13:10;;;;;;;;;58.50;50.50;;;;;2.90;67.49;100778.34;5059280;28;48016;-58
2021/12/23 06:15:36;;;;;;;;;51.75;44.50;;;;;2.89;66.82;100766.13;5077549;28;45196;-59
2021/12/23 06:18:02;;;;;;;;;51.00;43.75;;;;;2.95;66.91;100771.22;5059363;28;45454;-60
2021/12/23 06:20:28;;;;;;;;;61.50;48.00;;;;;2.96;67.15;100783.47;5068152;28;45450;-58
2021/12/23 06:22:53;;;;;;;;;52.75;47.25;;;;;2.95;66.80;100781.72;5077117;28;46430;-58
2021/12/23 06:25:19;;;;;;;;;62.75;48.25;;;;;2.95;67.13;100775.63;5058911;28;45470;-61
2021/12/23 06:27:44;;;;;;;;;61.75;48.25;;;;;2.96;66.83;100780.84;5059120;28;45587;-59
2021/12/23 06:30:21;;;;;;;;;55.50;46.00;;;;;3.01;67.17;100785.13;5077518;28;45497;-58
2021/12/23 06:32:52;;;;;;;;;57.00;47.00;;;;;2.95;66.86;100765.09;5058978;28;46387;-59
2021/12/23 06:35:20;;;;;;;;;52.50;46.50;;;;;3.03;67.06;100783.34;5077189;28;45513;-60
2021/12/23 06:37:45;;;;;;;;;49.00;39.50;;;;;2.94;67.06;100774.75;5058949;28;45602;-59
2021/12/23 06:40:12;;;;;;;;;56.00;45.50;;;;;3.06;66.66;100792.00;5053867;28;45569;-58
2021/12/23 06:42:38;;;;;;;;;58.50;50.00;;;;;3.07;67.17;100791.09;5076925;28;46773;-59
2021/12/23 06:45:04;;;;;;;;;50.50;40.25;;;;;3.10;67.18;100795.44;5076884;28;45537;-61
2021/12/23 06:47:30;;;;;;;;;66.25;49.75;;;;;3.10;66.96;100785.78;5077226;28;45404;-57
2021/12/23 06:49:55;;;;;;;;;66.50;48.50;;;;;3.10;67.17;100774.41;5059424;28;45295;-59
2021/12/23 06:52:21;;;;;;;;;66.25;51.75;;;;;3.09;67.06;100778.78;5076982;28;45824;-60
2021/12/23 06:54:48;;;;;;;;;52.50;45.50;;;;;3.09;67.06;100778.78;5076897;28;45275;-60
2021/12/23 06:57:14;;;;;;;;;69.25;52.75;;;;;3.14;66.93;100776.09;5076506;28;45248;-58
2021/12/23 06:59:40;;;;;;;;;62.00;49.25;;;;;3.11;67.33;100781.38;5077091;28;45359;-61
2021/12/23 07:02:06;;;;;;;;;55.75;48.00;;;;;3.11;66.99;100786.63;5076568;28;45441;-61
2021/12/23 07:04:33;;;;;;;;;59.50;46.50;;;;;3.19;67.25;100797.84;5074235;28;45467;-59
2021/12/23 07:07:10;;;;;;;;;62.00;47.50;;;;;3.20;67.08;100795.19;5077495;28;45402;-60
2021/12/23 07:09:42;;;;;;;;;51.75;43.75;;;;;3.26;67.13;100791.59;5077781;28;45405;-59
2021/12/23 07:12:12;;;;;;;;;61.75;50.00;;;;;3.25;67.05;100795.06;5077236;28;46211;-59
2021/12/23 07:14:39;;;;;;;;;66.00;48.00;;;;;3.27;67.07;100801.19;5077215;28;45279;-60
2021/12/23 07:17:07;;;;;;;;;51.50;45.50;;;;;3.32;66.92;100801.06;5077481;28;45295;-59
2021/12/23 07:19:32;;;;;;;;;62.25;49.00;;;;;3.32;67.01;100791.41;5077788;27;45614;-60
2021/12/23 07:21:58;;;;;;;;;62.50;51.25;;;;;3.25;66.73;100777.56;5058891;28;46233;-59
2021/12/23 07:24:23;;;;;;;;;61.75;50.50;;;;;3.45;66.66;100798.13;5077108;28;45419;-59
2021/12/23 07:26:52;;;;;;;;;60.75;49.75;;;;;3.49;66.65;100810.28;5063681;28;45434;-59
2021/12/23 07:29:18;;;;;;;;;54.75;44.50;;;;;3.52;66.79;100798.84;5077344;28;45391;-58
2021/12/23 07:31:44;;;;;;;;;50.75;44.00;;;;;3.52;66.74;100810.25;5068543;28;45398;-61
2021/12/23 07:34:10;;;;;;;;;57.50;47.50;;;;;3.58;66.26;100818.88;5056329;28;45180;-61
2021/12/23 07:36:36;;;;;;;;;51.50;45.75;;;;;3.56;66.88;100811.03;5043284;28;45422;-57
2021/12/23 07:39:07;;;;;;;;;58.00;43.75;;;;;3.61;66.67;100813.53;5073234;28;45601;-57
2021/12/23 07:41:34;;;;;;;;;64.50;49.75;;;;;3.66;66.69;100806.41;5057319;28;47422;-56
2021/12/23 07:44:05;;;;;;;;;62.00;47.00;;;;;3.68;66.74;100794.94;5076735;28;45470;-56
2021/12/23 07:46:33;;;;;;;;;52.75;40.25;;;;;3.77;66.33;100804.34;5077193;27;45387;-61
2021/12/23 07:49:03;;;;;;;;;54.75;47.50;;;;;3.83;66.49;100809.47;5076444;28;45416;-61
2021/12/23 07:51:29;;;;;;;;;56.75;44.00;;;;;3.86;66.39;100814.66;5058141;28;46378;-61
2021/12/23 07:53:54;;;;;;;;;54.75;44.00;;;;;3.89;66.32;100816.34;5075644;28;45423;-60
2021/12/23 07:56:22;;;;;;;;;65.00;45.00;;;;;3.93;66.33;100815.38;5067574;28;45464;-60
2021/12/23 07:58:47;;;;;;;;;52.50;42.25;;;;;3.96;66.10;100792.50;5056770;28;45339;-62
2021/12/23 08:01:13;;;;;;;;;63.25;44.25;;;;;4.08;65.85;100802.69;5056627;28;45959;-62
2021/12/23 08:03:38;;;;;;;;;57.75;45.50;;;;;4.13;66.27;100813.09;5056476;28;45430;-61
2021/12/23 08:06:04;;;;;;;;;49.50;39.75;;;;;4.15;65.87;100801.63;5055928;28;45286;-61
2021/12/23 08:08:30;;;;;;;;;60.50;44.00;;;;;4.24;65.68;100799.66;5057084;28;45328;-61
2021/12/23 08:10:56;;;;;;;;;54.25;43.25;;;;;4.31;65.55;100796.84;5056189;28;45648;-62
2021/12/23 08:13:21;;;;;;;;;49.50;44.50;;;;;4.36;64.80;100801.97;5062923;28;45588;-60
2021/12/23 08:15:47;;;;;;;;;60.00;43.50;;;;;4.37;65.59;100806.31;5059152;28;45544;-61
2021/12/23 08:18:12;;;;;;;;;55.25;42.50;;;;;4.30;64.91;100786.34;5071817;28;45383;-60
2021/12/23 08:20:38;;;;;;;;;50.75;45.25;;;;;4.39;65.07;100793.97;5058245;28;45345;-59
2021/12/23 08:23:04;;;;;;;;;57.00;46.00;;;;;4.48;65.08;100798.13;5076665;28;45409;-60
2021/12/23 08:25:29;;;;;;;;;63.50;46.75;;;;;4.53;65.50;100799.72;5075230;28;45378;-62
2021/12/23 08:27:55;;;;;;;;;59.00;45.00;;;;;4.56;65.45;100799.66;5075431;28;45456;-61
2021/12/23 08:30:21;;;;;;;;;54.75;45.50;;;;;4.61;64.57;100792.47;5074883;28;46478;-62
2021/12/23 08:32:48;;;;;;;;;64.00;46.50;;;;;4.67;65.39;100800.19;5074889;28;45544;-61
2021/12/23 08:35:15;;;;;;;;;34.00;31.50;;;;;4.69;65.32;100790.50;5074816;28;45291;-61
2021/12/23 08:37:46;;;;;;;;;60.75;42.75;;;;;4.74;65.22;100796.50;5076113;28;45499;-60
2021/12/23 08:40:15;;;;;;;;;56.25;47.25;;;;;4.76;65.20;100791.16;5074544;28;45959;-60
2021/12/23 08:42:41;;;;;;;;;47.50;42.25;;;;;4.79;64.88;100790.22;5073559;28;45956;-59
2021/12/23 08:45:07;;;;;;;;;46.50;37.00;;;;;4.80;65.24;100799.84;5073994;28;45515;-59
2021/12/23 08:47:34;;;;;;;;;48.00;41.50;;;;;4.78;65.02;100777.94;5074129;28;45787;-60
2021/12/23 08:49:59;;;;;;;;;50.75;44.00;;;;;4.87;64.53;100790.88;5074069;28;46688;-60
2021/12/23 08:52:25;;;;;;;;;72.75;50.00;;;;;4.89;64.93;100787.25;5077160;28;45513;-60
2021/12/23 08:54:50;;;;;;;;;51.75;42.75;;;;;4.95;64.95;100767.78;5059362;28;45438;-63
2021/12/23 08:57:16;;;;;;;;;54.00;44.00;;;;;5.01;64.07;100783.41;5079327;27;45207;-60
2021/12/23 08:59:42;;;;;;;;;52.25;42.25;;;;;5.01;64.71;100783.41;5078391;28;45446;-65
2021/12/23 09:02:11;;;;;;;;;56.50;44.75;;;;;5.05;63.85;100782.38;5077199;28;45529;-63
2021/12/23 09:04:38;;;;;;;;;54.25;42.75;;;;;5.06;64.45;100784.13;5058546;28;45581;-61
2021/12/23 09:07:04;;;;;;;;;61.25;49.00;;;;;5.10;64.92;100774.38;5058949;28;45354;-62
2021/12/23 09:09:32;;;;;;;;;53.25;45.25;;;;;5.06;64.38;100763.03;5075276;28;45460;-65
2021/12/23 09:11:58;;;;;;;;;55.75;45.25;;;;;5.14;64.70;100771.56;5072126;28;45838;-63
2021/12/23 09:14:24;;;;;;;;;64.50;42.25;;;;;5.16;64.26;100782.94;5077759;28;45672;-64
2021/12/23 09:16:49;;;;;;;;;57.00;43.00;;;;;5.20;64.22;100775.78;5078329;28;45429;-62
2021/12/23 09:19:15;;;;;;;;;55.25;46.25;;;;;5.22;64.56;100785.41;5077951;28;45906;-63
2021/12/23 09:21:41;;;;;;;;;53.00;44.50;;;;;5.28;64.59;100787.84;5047181;28;45858;-64
2021/12/23 09:24:07;;;;;;;;;60.25;46.75;;;;;5.36;64.76;100784.09;5077771;28;45496;-64
2021/12/23 09:26:41;;;;;;;;;43.25;40.25;;;;;5.32;65.41;100784.19;5059758;28;45445;-63
2021/12/23 09:29:14;;;;;;;;;54.75;43.50;;;;;5.39;64.91;100779.59;5041561;28;45439;-67
2021/12/23 09:34:23;;;;;;;;;50.50;45.25;;;;;5.48;64.90;100762.63;5077142;28;45356;-60
2021/12/23 09:36:49;;;;;;;;;56.25;39.50;;;;;5.56;64.25;100779.03;5078665;28;45519;-62
2021/12/23 09:39:14;;;;;;;;;42.00;33.25;;;;;5.59;64.58;100773.66;5077983;28;46329;-68
2021/12/23 09:41:47;;;;;;;;;47.75;42.00;;;;;5.62;64.77;100769.16;5059641;28;45398;-59
2021/12/23 09:44:14;;;;;;;;;50.75;43.75;;;;;5.67;65.13;100774.28;5078160;28;45275;-60
2021/12/23 09:46:40;;;;;;;;;50.25;44.75;;;;;5.74;64.87;100775.81;5078280;28;45574;-59
2021/12/23 09:49:06;;;;;;;;;47.25;42.75;;;;;5.80;64.98;100777.38;5077906;28;45476;-60
2021/12/23 09:51:33;;;;;;;;;47.50;39.50;;;;;5.83;65.00;100764.06;5077808;28;45622;-61
2021/12/23 09:54:03;;;;;;;;;46.50;40.00;;;;;5.86;65.17;100764.00;5077698;28;45452;-62
2021/12/23 09:56:31;;;;;;;;;42.25;37.25;;;;;5.88;65.79;100762.16;5075820;28;45519;-60
2021/12/23 09:58:58;;;;;;;;;45.75;36.50;;;;;5.87;65.37;100760.44;5077961;28;46393;-58
2021/12/23 10:01:25;;;;;;;;;47.25;42.25;;;;;5.85;65.25;100763.09;5060048;28;45380;-60
2021/12/23 10:03:51;;;;;;;;;49.50;38.25;;;;;5.88;65.94;100760.38;5075388;28;45656;-61
2021/12/23 10:06:18;;;;;;;;;45.25;39.00;;;;;5.96;65.60;100760.13;5050395;28;45560;-58
2021/12/23 10:08:47;;;;;;;;;62.25;45.00;;;;;6.00;66.32;100745.94;5051541;28;46928;-59
2021/12/23 10:11:23;;;;;;;;;48.25;43.50;;;;;6.08;66.03;100750.94;5075249;28;45570;-61
2021/12/23 10:30:40;;;;;;;;;56.75;45.50;;;;;6.46;65.97;100724.00;5073688;28;45589;-67
2021/12/23 10:38:56;;;;;;;;;49.25;42.50;;;;;6.65;65.84;100724.19;5072018;28;45544;-63
2021/12/23 10:41:28;;;;;;;;;47.25;42.75;;;;;6.64;66.51;100711.91;5057055;28;46413;-61
2021/12/23 10:43:57;;;;;;;;;51.50;36.75;;;;;6.70;66.56;100709.00;5058433;28;45941;-62
2021/12/23 10:46:31;;;;;;;;;52.50;44.00;;;;;6.74;66.79;100707.97;5075335;28;45234;-60
2021/12/23 10:49:39;;;;;;;;;42.75;39.50;;;;;6.84;66.56;100695.25;5058772;28;45418;-61
2021/12/23 10:52:10;;;;;;;;;49.75;41.00;;;;;6.80;66.62;100696.31;5051424;28;48194;-61
2021/12/23 11:00:20;;;;;;;;;44.50;41.25;;;;;7.02;67.08;100694.53;5067477;28;45315;-66
2021/12/23 11:03:07;;;;;;;;;43.00;37.75;;;;;7.06;67.37;100692.63;5074040;28;46075;-63
2021/12/23 11:05:39;;;;;;;;;41.75;37.00;;;;;7.06;67.27;100690.84;5072953;28;45288;-69
2021/12/23 11:30:45;;;;;;;;;39.75;36.00;;;;;7.51;68.87;100663.41;5071909;28;45399;-57
2021/12/23 11:35:50;;;;;;;;;46.50;33.75;;;;;7.61;69.42;100685.06;5070748;28;45585;-59
2021/12/23 11:39:06;;;;;;;;;39.25;34.25;;;;;7.66;69.76;100673.34;5065134;28;45371;-60
2021/12/23 11:43:51;;;;;;;;;30.75;30.25;;;;;7.82;69.63;100672.72;5076680;28;45588;-60
2021/12/23 11:46:26;;;;;;;;;34.75;29.50;;;;;7.86;70.30;100669.84;5070502;28;46082;-62
2021/12/23 11:48:55;;;;;;;;;40.75;33.75;;;;;7.90;70.31;100665.28;5075641;28;45397;-65
2021/12/23 11:51:31;;;;;;;;;32.00;30.00;;;;;7.93;70.71;100671.28;5057181;28;45535;-62
2021/12/23 11:53:58;;;;;;;;;36.25;28.75;;;;;7.91;70.79;100657.25;5075793;28;45529;-63
2021/12/23 11:56:25;;;;;;;;;31.25;29.75;;;;;7.98;70.62;100664.03;5075168;28;46386;-67
2021/12/23 11:58:57;;;;;;;;;24.25;24.25;;;;;7.96;71.13;100652.66;5075858;28;45527;-62
2021/12/23 12:01:28;;;;;;;;;42.00;32.00;;;;;8.01;71.11;100652.44;5074504;28;45412;-61
2021/12/23 12:04:09;;;;;;;;;37.50;34.50;;;;;8.06;70.60;100649.56;5056402;28;45545;-65
2021/12/23 12:06:39;;;;;;;;;42.00;34.75;;;;;8.06;70.79;100645.13;5042746;28;46464;-65
2021/12/23 12:09:11;;;;;;;;;46.25;34.00;;;;;8.08;70.74;100632.69;5055016;28;45565;-65
2021/12/23 12:11:37;;;;;;;;;33.25;28.00;;;;;8.08;70.66;100632.69;5040058;28;45588;-64
2021/12/23 12:14:04;;;;;;;;;36.50;33.00;;;;;8.13;70.61;100636.00;5054706;28;45664;-60
2021/12/23 12:16:32;;;;;;;;;31.00;31.00;;;;;8.16;70.48;100630.53;5074714;28;45419;-64
2021/12/23 12:18:58;;;;;;;;;46.00;38.00;;;;;8.20;71.03;100621.56;5071633;27;45862;-61
2021/12/23 12:21:28;;;;;;;;;38.00;34.00;;;;;8.19;70.92;100609.22;5063023;28;45445;-64
2021/12/23 12:24:07;;;;;;;;;30.50;26.25;;;;;8.20;71.19;100610.97;5071975;28;45525;-62